Time;durP1;ratioP1;P1;durP2;ratioP2;P2;SDS_P1;SDS_P2;PMS_P1;PMS_P2;Temp;Humidity;BMP_temperature;BMP_pressure;BME280_temperature;BME280_humidity;BME280_pressure;Samples;Min_cycle;Max_cycle;Signal;HPM_P1;HPM_P2
2021/08/12 00:01:21;;;;;;;7.63;6.87;;;20.30;99.90;;;;;;5000425;28;20183;-83
2021/08/12 00:03:47;;;;;;;7.60;6.97;;;20.30;99.90;;;;;;5001484;28;20171;-81
2021/08/12 00:06:14;;;;;;;8.40;6.63;;;20.20;99.90;;;;;;4999370;28;20180;-82
2021/08/12 00:08:40;;;;;;;7.20;6.60;;;20.20;99.90;;;;;;5003610;28;20203;-82
2021/08/12 00:11:06;;;;;;;9.00;7.20;;;20.20;99.90;;;;;;5002863;28;20239;-82
2021/08/12 00:13:32;;;;;;;7.50;6.80;;;20.20;99.90;;;;;;5002877;28;20179;-82
2021/08/12 00:16:03;;;;;;;7.30;6.67;;;20.20;99.90;;;;;;5002651;28;20262;-83
2021/08/12 00:18:32;;;;;;;7.57;6.87;;;20.20;99.90;;;;;;5003881;28;20203;-82
2021/08/12 00:20:57;;;;;;;7.50;6.90;;;20.20;99.90;;;;;;5004291;28;20263;-82
2021/08/12 00:23:25;;;;;;;8.17;7.47;;;20.20;99.90;;;;;;5003760;28;20214;-82
2021/08/12 00:25:53;;;;;;;8.10;7.30;;;20.10;99.90;;;;;;5004964;28;20541;-82
2021/08/12 00:28:19;;;;;;;7.00;6.40;;;20.10;99.90;;;;;;5004647;28;20180;-81
2021/08/12 00:30:45;;;;;;;9.57;7.40;;;20.10;99.90;;;;;;5004825;28;20194;-82
2021/08/12 00:33:10;;;;;;;8.33;7.60;;;20.00;99.90;;;;;;5004807;28;20659;-82
2021/08/12 00:35:36;;;;;;;10.37;7.17;;;20.00;99.90;;;;;;5005860;28;20192;-82
2021/08/12 00:38:02;;;;;;;7.70;6.93;;;20.10;99.90;;;;;;5004683;28;20194;-82
2021/08/12 00:40:30;;;;;;;7.80;7.20;;;20.00;99.90;;;;;;5006639;28;20753;-81
2021/08/12 00:42:55;;;;;;;9.17;7.77;;;20.00;99.90;;;;;;5011822;28;20203;-81
2021/08/12 00:45:21;;;;;;;9.63;6.90;;;20.00;99.90;;;;;;5010577;28;20227;-81
2021/08/12 00:47:50;;;;;;;8.57;7.77;;;;;;;;;;5005509;28;20614;-81
2021/08/12 00:50:18;;;;;;;8.07;7.27;;;19.80;99.90;;;;;;5002847;28;20207;-81
2021/08/12 00:52:43;;;;;;;8.37;7.53;;;19.90;99.90;;;;;;5002323;28;20246;-82
2021/08/12 00:55:10;;;;;;;9.70;7.80;;;19.80;99.90;;;;;;5002928;28;20187;-82
2021/08/12 00:57:36;;;;;;;9.07;7.93;;;19.80;99.90;;;;;;5002908;28;20613;-81
2021/08/12 01:00:03;;;;;;;8.27;7.47;;;19.70;99.90;;;;;;5001822;28;20211;-83
2021/08/12 01:02:29;;;;;;;7.97;7.17;;;19.80;99.90;;;;;;5003165;28;20559;-81
2021/08/12 01:04:55;;;;;;;7.40;6.80;;;19.80;99.90;;;;;;5003121;28;20239;-81
2021/08/12 01:07:32;;;;;;;8.13;7.33;;;19.80;99.90;;;;;;5003448;28;20180;-83
2021/08/12 01:10:14;;;;;;;7.80;7.20;;;19.80;99.90;;;;;;5003122;28;20254;-81
2021/08/12 01:13:04;;;;;;;10.73;7.93;;;19.70;99.90;;;;;;5001927;28;20183;-81
2021/08/12 01:15:39;;;;;;;8.60;7.27;;;19.70;99.90;;;;;;5003160;28;20180;-81
2021/08/12 01:18:27;;;;;;;8.83;7.00;;;19.60;99.90;;;;;;5000698;28;20183;-83
2021/08/12 01:20:59;;;;;;;7.80;7.10;;;19.50;99.90;;;;;;5002258;28;20164;-82
2021/08/12 01:23:26;;;;;;;8.37;6.97;;;19.40;99.90;;;;;;5002513;28;20186;-83
2021/08/12 01:25:54;;;;;;;7.70;7.10;;;19.40;99.90;;;;;;5002236;28;20187;-82
2021/08/12 01:28:26;;;;;;;8.03;7.33;;;19.40;99.90;;;;;;5002662;28;20172;-83
2021/08/12 01:31:32;;;;;;;7.93;6.70;;;19.50;99.90;;;;;;5002084;28;20207;-82
2021/08/12 01:33:58;;;;;;;7.67;6.87;;;19.40;99.90;;;;;;4954732;28;20261;-82
2021/08/12 01:36:25;;;;;;;8.13;7.43;;;19.40;99.90;;;;;;5002892;28;20203;-82
2021/08/12 01:38:53;;;;;;;9.23;7.17;;;19.40;99.90;;;;;;5002334;28;20220;-81
2021/08/12 01:41:21;;;;;;;8.03;7.23;;;19.30;99.90;;;;;;5000469;28;20651;-82
2021/08/12 01:43:47;;;;;;;10.80;7.10;;;19.40;99.90;;;;;;5001124;28;20176;-81
2021/08/12 01:46:14;;;;;;;8.53;7.73;;;19.30;99.90;;;;;;5002070;28;20172;-82
2021/08/12 01:48:40;;;;;;;8.97;7.17;;;19.30;99.90;;;;;;5001504;28;20207;-81
2021/08/12 01:51:06;;;;;;;7.30;6.70;;;19.20;99.90;;;;;;5001360;28;20214;-82
2021/08/12 01:53:33;;;;;;;7.37;6.77;;;19.20;99.90;;;;;;5001659;28;20195;-82
2021/08/12 01:56:00;;;;;;;7.23;6.63;;;19.20;99.90;;;;;;5002202;28;20179;-82
2021/08/12 01:58:29;;;;;;;7.00;6.30;;;19.10;99.90;;;;;;5001510;28;20215;-82
2021/08/12 02:00:56;;;;;;;9.67;6.83;;;19.10;99.90;;;;;;5001160;28;20551;-82
2021/08/12 02:03:24;;;;;;;7.33;6.73;;;19.10;99.90;;;;;;5002248;28;20195;-83
2021/08/12 02:05:51;;;;;;;7.27;6.60;;;19.00;99.90;;;;;;5001519;28;20183;-81
2021/08/12 02:08:21;;;;;;;7.47;6.77;;;19.00;99.90;;;;;;5002248;28;20643;-83
2021/08/12 02:10:48;;;;;;;7.10;6.40;;;19.00;99.90;;;;;;5001763;28;20315;-83
2021/08/12 02:13:14;;;;;;;7.73;7.03;;;19.00;99.90;;;;;;5001954;28;20171;-81
2021/08/12 02:15:40;;;;;;;7.40;6.70;;;19.00;99.90;;;;;;5001089;28;20176;-83
2021/08/12 02:18:06;;;;;;;8.40;7.50;;;18.90;99.90;;;;;;5001832;28;20180;-81
2021/08/12 02:20:32;;;;;;;7.70;7.10;;;18.90;99.90;;;;;;5001324;28;20176;-82
2021/08/12 02:23:04;;;;;;;7.47;6.60;;;18.90;99.90;;;;;;5000404;28;20184;-83
2021/08/12 02:25:33;;;;;;;7.53;6.80;;;18.90;99.90;;;;;;5000661;28;20712;-81
2021/08/12 02:28:04;;;;;;;7.90;7.13;;;18.80;99.90;;;;;;4998122;28;20194;-80
2021/08/12 02:30:34;;;;;;;8.23;7.20;;;18.70;99.90;;;;;;5001803;28;20195;-82
2021/08/12 02:33:01;;;;;;;7.77;7.07;;;18.80;99.90;;;;;;4997953;28;20198;-85
2021/08/12 02:35:28;;;;;;;6.90;6.23;;;18.80;99.90;;;;;;4999650;28;20176;-81
2021/08/12 02:37:56;;;;;;;8.10;7.40;;;18.80;99.90;;;;;;5000276;28;20524;-80
2021/08/12 02:40:23;;;;;;;7.67;7.07;;;18.80;99.90;;;;;;5036858;23;20222;-79
2021/08/12 02:42:49;;;;;;;8.03;6.67;;;18.70;99.90;;;;;;5022132;28;20810;-80
2021/08/12 02:45:16;;;;;;;7.67;6.87;;;18.80;99.90;;;;;;5021899;28;20182;-80
2021/08/12 02:47:45;;;;;;;7.80;7.10;;;18.70;99.90;;;;;;5023616;28;20186;-80
2021/08/12 02:50:12;;;;;;;7.60;7.00;;;18.70;99.90;;;;;;5023645;28;20203;-80
2021/08/12 02:52:40;;;;;;;7.37;6.70;;;18.70;99.90;;;;;;5023252;28;20185;-80
2021/08/12 02:55:07;;;;;;;8.67;6.67;;;18.60;99.90;;;;;;5022197;28;20183;-80
2021/08/12 02:57:33;;;;;;;7.87;7.10;;;18.60;99.90;;;;;;5022082;28;20201;-80
2021/08/12 02:59:59;;;;;;;7.30;6.73;;;18.60;99.90;;;;;;5021190;28;20215;-80
2021/08/12 03:02:24;;;;;;;8.60;6.83;;;18.60;99.90;;;;;;5023096;28;20600;-79
2021/08/12 03:04:50;;;;;;;7.37;6.63;;;18.60;99.90;;;;;;5022149;28;20565;-80
2021/08/12 03:07:20;;;;;;;7.47;6.87;;;18.60;99.90;;;;;;5024794;28;20179;-80
2021/08/12 03:09:50;;;;;;;7.20;6.50;;;18.60;99.90;;;;;;5022916;28;20276;-80
2021/08/12 03:12:20;;;;;;;7.63;7.03;;;18.50;99.90;;;;;;5025322;28;20183;-80
2021/08/12 03:14:49;;;;;;;8.27;7.17;;;18.50;99.90;;;;;;5023954;28;20187;-80
2021/08/12 03:17:16;;;;;;;8.03;7.33;;;18.40;99.90;;;;;;5023547;28;20183;-80
2021/08/12 03:19:43;;;;;;;7.87;7.17;;;18.50;99.90;;;;;;5023535;28;20298;-80
2021/08/12 03:22:11;;;;;;;7.20;6.60;;;18.40;99.90;;;;;;5023788;28;20179;-80
2021/08/12 03:24:41;;;;;;;7.50;6.53;;;18.40;99.90;;;;;;5023822;28;20195;-80
2021/08/12 03:27:10;;;;;;;8.20;7.30;;;18.40;99.90;;;;;;5024188;28;20171;-81
2021/08/12 03:29:37;;;;;;;8.00;6.37;;;18.40;99.90;;;;;;5024731;28;20206;-79
2021/08/12 03:32:02;;;;;;;8.53;7.10;;;18.30;99.90;;;;;;5024129;28;20237;-80
2021/08/12 03:34:28;;;;;;;7.83;7.07;;;18.40;99.90;;;;;;5022819;28;20199;-79
2021/08/12 03:36:54;;;;;;;7.37;6.77;;;18.30;99.90;;;;;;5023392;28;20556;-80
2021/08/12 03:39:22;;;;;;;7.33;6.70;;;18.30;99.90;;;;;;5023357;28;20227;-80
2021/08/12 03:41:48;;;;;;;7.47;6.73;;;18.30;99.90;;;;;;5023089;28;20210;-79
2021/08/12 03:44:13;;;;;;;7.73;7.13;;;18.30;99.90;;;;;;5026560;28;20545;-79
2021/08/12 03:46:39;;;;;;;7.47;6.87;;;18.30;99.90;;;;;;5027313;28;20645;-79
2021/08/12 03:49:05;;;;;;;7.43;6.03;;;18.30;99.90;;;;;;5026643;28;20199;-79
2021/08/12 03:51:31;;;;;;;11.13;7.07;;;18.20;99.90;;;;;;5025776;28;20183;-79
2021/08/12 03:53:57;;;;;;;7.27;6.63;;;18.20;99.90;;;;;;5025814;28;20202;-79
2021/08/12 03:56:23;;;;;;;7.60;6.90;;;18.20;99.90;;;;;;5030489;28;20624;-80
2021/08/12 03:58:49;;;;;;;7.63;6.90;;;18.30;99.90;;;;;;5032646;28;20205;-80
2021/08/12 04:01:14;;;;;;;7.50;6.80;;;18.10;99.90;;;;;;5023659;28;20175;-81
2021/08/12 04:03:40;;;;;;;7.33;6.63;;;18.10;99.90;;;;;;5019357;28;20179;-80
2021/08/12 04:06:05;;;;;;;6.60;6.00;;;18.10;99.90;;;;;;5026901;28;20534;-80
2021/08/12 04:08:32;;;;;;;7.43;6.63;;;18.00;99.90;;;;;;5029128;28;20298;-80
2021/08/12 04:10:57;;;;;;;7.10;6.60;;;17.90;99.90;;;;;;5029702;28;20203;-80
2021/08/12 04:13:23;;;;;;;7.20;6.67;;;17.80;99.90;;;;;;5031184;28;20218;-82
2021/08/12 04:15:49;;;;;;;7.70;6.97;;;17.80;99.90;;;;;;5016990;28;20217;-81
2021/08/12 04:18:14;;;;;;;11.43;6.77;;;17.80;99.90;;;;;;5010152;28;20190;-82
2021/08/12 04:20:40;;;;;;;7.80;7.10;;;17.90;99.90;;;;;;5016694;28;20225;-79
2021/08/12 04:23:06;;;;;;;7.60;6.60;;;17.90;99.90;;;;;;5027950;28;20175;-81
2021/08/12 04:25:32;;;;;;;8.23;7.53;;;17.90;99.90;;;;;;5013638;28;20176;-80
2021/08/12 04:27:57;;;;;;;7.83;7.13;;;17.90;99.90;;;;;;5012416;28;20187;-78
2021/08/12 04:30:26;;;;;;;6.73;6.13;;;18.00;99.90;;;;;;5013037;28;20202;-78
2021/08/12 04:33:18;;;;;;;7.60;7.00;;;17.90;99.90;;;;;;5014005;28;20654;-79
2021/08/12 04:35:44;;;;;;;6.67;6.17;;;17.90;99.90;;;;;;5008057;28;20627;-82
2021/08/12 04:38:10;;;;;;;8.03;7.10;;;17.90;99.90;;;;;;5007028;28;20214;-80
2021/08/12 04:40:36;;;;;;;7.27;6.57;;;17.90;99.90;;;;;;5013714;28;20222;-79
2021/08/12 04:43:22;;;;;;;7.30;6.70;;;17.90;99.90;;;;;;5012011;28;20171;-79
2021/08/12 04:45:48;;;;;;;7.67;7.00;;;17.90;99.90;;;;;;5009188;28;20195;-81
2021/08/12 04:48:35;;;;;;;9.77;6.60;;;17.90;99.90;;;;;;5013376;28;20191;-78
2021/08/12 04:51:00;;;;;;;7.20;6.60;;;17.90;99.90;;;;;;5011702;28;20206;-81
2021/08/12 04:53:32;;;;;;;7.87;6.77;;;18.00;99.90;;;;;;5012455;28;20179;-80
2021/08/12 04:56:01;;;;;;;7.60;6.90;;;18.00;99.90;;;;;;5007006;28;20180;-79
2021/08/12 04:58:38;;;;;;;7.23;6.63;;;18.00;99.90;;;;;;5005075;28;20191;-79
2021/08/12 05:01:04;;;;;;;7.80;7.07;;;18.00;99.90;;;;;;5011792;28;20188;-81
2021/08/12 05:03:33;;;;;;;9.07;7.07;;;18.00;99.90;;;;;;4999962;28;20182;-74
2021/08/12 05:06:03;;;;;;;11.17;7.10;;;17.90;99.90;;;;;;4995698;28;20518;-77
2021/08/12 05:08:29;;;;;;;6.80;6.17;;;17.90;99.90;;;;;;5005590;28;20184;-77
2021/08/12 05:10:55;;;;;;;9.57;6.73;;;17.90;99.90;;;;;;4994766;28;20568;-77
2021/08/12 05:13:20;;;;;;;8.03;7.13;;;17.90;99.90;;;;;;4995425;28;20189;-77
2021/08/12 05:15:46;;;;;;;7.40;6.77;;;17.90;99.90;;;;;;5002529;28;20172;-78
2021/08/12 05:18:11;;;;;;;7.33;6.67;;;18.00;99.90;;;;;;4996867;28;20593;-77
2021/08/12 05:20:37;;;;;;;7.77;6.63;;;18.00;99.90;;;;;;4997738;28;20207;-76
2021/08/12 05:23:04;;;;;;;6.53;6.03;;;18.00;99.90;;;;;;4996257;28;20184;-77
2021/08/12 05:25:29;;;;;;;8.10;6.70;;;18.00;99.90;;;;;;4995652;28;20545;-77
2021/08/12 05:27:56;;;;;;;7.23;6.63;;;18.00;99.90;;;;;;4998194;28;20179;-76
2021/08/12 05:30:22;;;;;;;7.27;6.53;;;18.00;99.90;;;;;;5007410;28;20602;-75
2021/08/12 05:32:48;;;;;;;7.20;6.60;;;18.00;99.90;;;;;;5011269;28;20175;-74
2021/08/12 05:35:14;;;;;;;7.47;6.80;;;18.00;99.90;;;;;;4995252;28;20537;-77
2021/08/12 05:37:40;;;;;;;7.37;6.70;;;18.00;99.90;;;;;;5005406;28;20316;-77
2021/08/12 05:40:06;;;;;;;7.47;6.77;;;18.00;99.90;;;;;;5022412;28;20296;-77
2021/08/12 05:42:32;;;;;;;7.13;6.43;;;18.10;99.90;;;;;;5019645;28;20179;-76
2021/08/12 05:44:57;;;;;;;7.30;6.60;;;18.20;99.90;;;;;;5013021;28;20670;-76
2021/08/12 05:47:23;;;;;;;8.20;5.87;;;18.20;99.90;;;;;;5014245;28;20183;-77
2021/08/12 05:49:48;;;;;;;10.17;6.43;;;18.30;99.90;;;;;;5011108;28;20198;-77
2021/08/12 05:52:14;;;;;;;8.23;6.50;;;18.30;99.90;;;;;;4993028;28;20323;-77
2021/08/12 05:54:40;;;;;;;10.97;7.10;;;18.30;99.90;;;;;;4994875;28;20226;-76
2021/08/12 05:57:06;;;;;;;6.87;6.27;;;18.40;99.90;;;;;;4996882;28;20195;-78
2021/08/12 05:59:31;;;;;;;7.27;6.17;;;18.50;99.90;;;;;;4998219;28;20725;-78
2021/08/12 06:01:57;;;;;;;8.30;6.90;;;18.50;99.90;;;;;;5010425;28;20179;-77
2021/08/12 06:04:22;;;;;;;7.87;7.07;;;18.60;99.90;;;;;;5013892;28;20222;-77
2021/08/12 06:06:48;;;;;;;8.23;6.87;;;18.60;99.90;;;;;;5011475;28;20171;-77
2021/08/12 06:09:14;;;;;;;8.80;6.70;;;18.70;99.90;;;;;;5012650;28;20215;-77
2021/08/12 06:11:39;;;;;;;8.77;6.37;;;18.80;99.90;;;;;;5013220;28;20171;-77
2021/08/12 06:14:05;;;;;;;9.70;6.23;;;18.90;99.90;;;;;;5012670;28;20217;-77
2021/08/12 06:16:31;;;;;;;7.47;6.70;;;19.10;99.90;;;;;;5011645;28;20186;-77
2021/08/12 06:18:56;;;;;;;7.53;6.27;;;19.10;99.90;;;;;;5012337;28;20738;-76
2021/08/12 06:21:23;;;;;;;7.47;6.10;;;19.10;99.90;;;;;;5012106;28;20183;-77
2021/08/12 06:23:50;;;;;;;7.50;6.80;;;19.20;99.90;;;;;;5012604;28;20209;-77
2021/08/12 06:26:16;;;;;;;8.40;6.47;;;19.30;99.90;;;;;;5012505;28;20281;-77
2021/08/12 06:28:43;;;;;;;7.97;6.87;;;19.30;99.90;;;;;;5012184;28;20203;-77
2021/08/12 06:31:09;;;;;;;6.87;6.20;;;19.40;99.90;;;;;;5012415;28;20171;-77
2021/08/12 06:33:34;;;;;;;8.23;6.83;;;19.50;99.90;;;;;;5013538;28;20175;-76
2021/08/12 06:36:00;;;;;;;7.40;6.70;;;19.50;99.90;;;;;;5012642;28;20727;-77
2021/08/12 06:38:26;;;;;;;7.63;7.03;;;19.50;99.90;;;;;;5012380;28;20183;-77
2021/08/12 06:40:52;;;;;;;7.03;6.37;;;19.60;99.90;;;;;;5011788;28;20238;-78
2021/08/12 06:43:17;;;;;;;7.03;6.33;;;19.70;99.90;;;;;;5012283;28;20841;-77
2021/08/12 06:45:45;;;;;;;8.07;6.50;;;19.70;99.90;;;;;;5012174;28;20684;-76
2021/08/12 06:48:10;;;;;;;7.20;6.50;;;19.70;99.90;;;;;;5010699;28;20186;-76
2021/08/12 06:50:38;;;;;;;7.10;6.40;;;19.70;99.90;;;;;;5012057;28;20584;-75
2021/08/12 06:53:07;;;;;;;7.17;6.47;;;19.70;99.90;;;;;;5011980;28;20262;-76
2021/08/12 06:55:35;;;;;;;7.47;6.77;;;19.80;99.90;;;;;;5013267;28;20623;-74
2021/08/12 06:58:02;;;;;;;7.53;6.73;;;20.00;99.90;;;;;;5012302;28;20171;-74
2021/08/12 07:00:28;;;;;;;7.67;5.53;;;20.00;99.90;;;;;;5012078;28;20202;-76
2021/08/12 07:02:54;;;;;;;9.57;6.03;;;20.10;99.90;;;;;;5013435;28;20183;-74
2021/08/12 07:05:29;;;;;;;7.80;6.10;;;20.20;99.90;;;;;;5013456;28;20619;-76
2021/08/12 07:07:58;;;;;;;10.37;6.87;;;20.20;99.90;;;;;;5012210;28;20174;-76
2021/08/12 07:10:24;;;;;;;6.97;6.27;;;20.40;99.90;;;;;;5011197;28;20681;-78
2021/08/12 07:12:50;;;;;;;7.07;6.47;;;20.50;99.90;;;;;;4995562;28;20198;-77
2021/08/12 07:15:15;;;;;;;6.60;5.97;;;20.60;99.90;;;;;;5006070;28;20228;-77
2021/08/12 07:17:41;;;;;;;6.37;5.77;;;20.70;99.90;;;;;;5015105;28;20258;-76
2021/08/12 07:20:07;;;;;;;10.93;6.00;;;20.80;99.90;;;;;;5016465;28;20203;-78
2021/08/12 07:22:33;;;;;;;7.40;6.03;;;21.00;99.90;;;;;;5003568;28;20175;-77
2021/08/12 07:24:59;;;;;;;6.77;6.00;;;21.00;99.90;;;;;;5005597;28;20183;-78
2021/08/12 07:27:25;;;;;;;6.57;5.90;;;21.00;99.90;;;;;;5005040;28;20187;-76
2021/08/12 07:29:51;;;;;;;6.80;6.13;;;21.00;99.90;;;;;;5011005;28;20215;-74
2021/08/12 07:32:17;;;;;;;6.57;5.97;;;21.00;99.90;;;;;;5005837;28;20183;-77
2021/08/12 07:34:42;;;;;;;7.10;6.53;;;21.00;99.90;;;;;;5005557;28;20182;-77
2021/08/12 07:37:08;;;;;;;7.43;6.07;;;21.10;99.90;;;;;;5003272;28;20556;-76
2021/08/12 07:39:34;;;;;;;6.60;5.90;;;21.20;99.90;;;;;;5052794;23;20219;-75
2021/08/12 07:41:59;;;;;;;8.33;6.47;;;21.40;99.90;;;;;;4991720;28;20171;-78
2021/08/12 07:44:25;;;;;;;7.67;6.33;;;21.50;99.90;;;;;;4994588;28;20175;-77
2021/08/12 07:46:51;;;;;;;7.37;6.40;;;21.50;99.90;;;;;;4992416;28;20172;-77
2021/08/12 07:49:16;;;;;;;9.57;7.60;;;21.50;99.90;;;;;;4983402;28;20232;-78
2021/08/12 07:51:42;;;;;;;7.40;6.70;;;21.60;99.90;;;;;;4987332;28;20180;-77
2021/08/12 07:54:07;;;;;;;7.73;7.03;;;21.70;99.90;;;;;;4986776;28;20606;-77
2021/08/12 07:56:36;;;;;;;9.30;7.93;;;21.70;99.90;;;;;;4993712;28;20180;-75
2021/08/12 07:59:02;;;;;;;9.07;8.17;;;21.80;99.90;;;;;;4982007;28;20591;-77
2021/08/12 08:01:27;;;;;;;9.90;7.57;;;21.70;99.90;;;;;;4987392;28;20584;-77
2021/08/12 08:03:53;;;;;;;8.93;8.07;;;21.70;99.90;;;;;;4990230;28;20183;-75
2021/08/12 08:06:20;;;;;;;12.53;7.80;;;21.80;99.90;;;;;;4987369;28;20192;-78
2021/08/12 08:08:46;;;;;;;7.73;7.03;;;21.80;99.90;;;;;;4993949;28;20200;-77
2021/08/12 08:11:14;;;;;;;8.13;7.33;;;21.80;99.90;;;;;;4989676;28;20304;-78
2021/08/12 08:13:40;;;;;;;9.13;7.70;;;21.90;99.90;;;;;;4993306;28;20167;-78
2021/08/12 08:16:05;;;;;;;8.50;7.70;;;22.00;99.90;;;;;;4987520;28;20176;-78
2021/08/12 08:18:32;;;;;;;9.80;7.63;;;21.90;99.90;;;;;;4993336;28;20552;-77
2021/08/12 08:20:58;;;;;;;10.13;8.20;;;22.10;99.90;;;;;;4991998;28;20196;-77
2021/08/12 08:23:24;;;;;;;13.13;9.03;;;22.20;99.90;;;;;;4993053;28;20175;-78
2021/08/12 08:25:50;;;;;;;9.47;8.67;;;22.30;99.90;;;;;;4986834;28;20184;-78
2021/08/12 08:28:15;;;;;;;10.20;8.17;;;22.40;99.90;;;;;;4986685;28;20176;-77
2021/08/12 08:30:41;;;;;;;9.83;7.57;;;22.50;99.90;;;;;;4991519;28;20208;-78
2021/08/12 08:33:08;;;;;;;8.80;6.97;;;22.50;99.90;;;;;;4988904;28;20172;-77
2021/08/12 08:35:34;;;;;;;9.03;7.73;;;22.70;99.90;;;;;;4986780;28;20171;-78
2021/08/12 08:38:01;;;;;;;8.80;8.00;;;22.70;99.90;;;;;;4988197;28;20199;-78
2021/08/12 08:40:27;;;;;;;8.50;7.40;;;22.80;99.90;;;;;;5036013;23;20749;-78
2021/08/12 08:42:53;;;;;;;8.97;8.07;;;22.90;99.90;;;;;;4987970;28;20188;-79
2021/08/12 08:45:25;;;;;;;9.10;8.20;;;22.90;99.90;;;;;;4980841;28;20172;-79
2021/08/12 08:47:53;;;;;;;8.70;7.80;;;23.00;99.90;;;;;;4974737;28;20188;-78
2021/08/12 08:50:21;;;;;;;9.43;7.83;;;23.10;99.90;;;;;;4978098;28;20215;-79
2021/08/12 08:52:47;;;;;;;8.03;7.43;;;23.10;99.90;;;;;;4983312;28;20264;-77
2021/08/12 08:55:23;;;;;;;7.97;7.20;;;23.10;99.90;;;;;;4978075;28;20169;-78
2021/08/12 08:57:49;;;;;;;7.80;7.07;;;23.20;99.90;;;;;;4986980;28;20187;-78
2021/08/12 09:00:16;;;;;;;8.90;8.00;;;23.20;99.90;;;;;;4980750;28;20199;-77
2021/08/12 09:02:43;;;;;;;8.30;7.63;;;23.30;99.90;;;;;;4980568;28;20184;-78
2021/08/12 09:05:10;;;;;;;8.27;7.50;;;23.50;99.90;;;;;;4984730;28;20226;-79
2021/08/12 09:07:37;;;;;;;8.30;7.60;;;23.50;99.90;;;;;;4978633;28;20227;-78
2021/08/12 09:10:03;;;;;;;7.77;7.07;;;23.60;99.90;;;;;;4982940;28;20200;-78
2021/08/12 09:12:30;;;;;;;7.37;6.77;;;23.90;99.90;;;;;;4978664;28;20184;-77
2021/08/12 09:15:04;;;;;;;9.47;8.10;;;23.90;99.90;;;;;;4977367;28;20523;-77
2021/08/12 09:17:31;;;;;;;8.33;7.70;;;23.90;99.90;;;;;;4976082;28;20181;-78
2021/08/12 09:20:08;;;;;;;9.53;7.97;;;23.90;99.90;;;;;;4978245;28;20187;-77
2021/08/12 09:22:58;;;;;;;8.53;7.73;;;23.90;99.90;;;;;;4996986;28;20669;-80
2021/08/12 09:25:50;;;;;;;7.90;7.30;;;24.00;99.90;;;;;;4978676;28;20172;-79
2021/08/12 09:28:26;;;;;;;8.67;7.57;;;24.00;99.90;;;;;;4987559;28;20264;-79
2021/08/12 09:30:58;;;;;;;9.17;8.10;;;24.00;99.90;;;;;;4976560;28;20290;-79
2021/08/12 09:33:25;;;;;;;9.27;8.30;;;24.00;99.90;;;;;;4974708;28;20180;-79
2021/08/12 09:35:53;;;;;;;8.70;7.80;;;24.10;99.90;;;;;;4981268;28;20169;-78
2021/08/12 09:38:19;;;;;;;8.53;7.80;;;24.20;99.90;;;;;;4981888;28;20685;-80
2021/08/12 09:40:55;;;;;;;9.13;7.80;;;24.40;99.90;;;;;;4984291;28;20359;-79
2021/08/12 09:43:23;;;;;;;7.97;7.20;;;24.60;99.90;;;;;;4963782;28;20652;-79
2021/08/12 09:45:49;;;;;;;8.57;7.50;;;24.70;99.90;;;;;;4982339;28;20187;-80
2021/08/12 09:48:18;;;;;;;9.27;7.90;;;24.90;99.90;;;;;;4982613;28;20184;-78
2021/08/12 09:50:45;;;;;;;8.10;7.33;;;;;;;;;;4981571;28;20224;-79
2021/08/12 09:53:20;;;;;;;8.17;7.37;;;;;;;;;;4976989;28;20239;-79
2021/08/12 09:55:47;;;;;;;8.67;7.97;;;25.30;99.90;;;;;;4971521;28;20188;-79
2021/08/12 09:58:14;;;;;;;7.93;7.27;;;25.30;99.90;;;;;;4976768;28;20199;-78
2021/08/12 10:00:45;;;;;;;8.30;7.60;;;25.40;99.90;;;;;;4977192;28;20200;-78
2021/08/12 10:03:30;;;;;;;7.73;7.13;;;25.40;99.90;;;;;;4982023;28;20230;-79
2021/08/12 10:06:16;;;;;;;9.73;8.43;;;25.50;99.90;;;;;;4977979;28;20188;-79
2021/08/12 10:08:42;;;;;;;8.43;7.63;;;25.60;99.90;;;;;;4985675;28;20187;-78
2021/08/12 10:11:25;;;;;;;10.40;9.40;;;25.80;99.90;;;;;;4987734;28;20201;-78
2021/08/12 10:14:03;;;;;;;8.80;7.90;;;25.80;99.90;;;;;;4978566;28;20263;-79
2021/08/12 10:16:31;;;;;;;8.27;7.67;;;26.00;99.90;;;;;;4977501;28;20188;-78
2021/08/12 10:19:04;;;;;;;7.97;7.37;;;26.20;99.90;;;;;;4998746;28;20236;-79
2021/08/12 10:21:30;;;;;;;8.73;7.90;;;26.30;99.90;;;;;;4980429;28;20207;-79
2021/08/12 10:24:00;;;;;;;8.63;7.70;;;26.40;99.90;;;;;;4978982;28;20220;-79
2021/08/12 10:26:28;;;;;;;8.20;7.33;;;26.50;99.90;;;;;;4980650;28;20226;-78
2021/08/12 10:29:21;;;;;;;8.20;7.40;;;26.60;99.90;;;;;;4976455;28;20718;-80
2021/08/12 10:31:48;;;;;;;9.60;7.37;;;26.60;99.90;;;;;;4980980;28;20201;-79
2021/08/12 10:34:17;;;;;;;8.37;7.57;;;26.80;99.90;;;;;;4978310;28;20184;-79
2021/08/12 10:36:52;;;;;;;7.77;7.07;;;26.80;99.90;;;;;;4980416;28;20256;-79
2021/08/12 10:39:18;;;;;;;7.87;7.17;;;26.90;99.90;;;;;;4978424;28;20271;-78
2021/08/12 10:41:46;;;;;;;7.37;6.77;;;26.90;99.90;;;;;;4986119;28;20281;-79
2021/08/12 10:44:14;;;;;;;7.90;7.13;;;27.00;99.90;;;;;;4982823;28;20191;-79
2021/08/12 10:46:41;;;;;;;7.17;6.57;;;27.10;99.90;;;;;;4974782;28;20667;-78
2021/08/12 10:49:27;;;;;;;7.40;6.80;;;;;;;;;;4977660;28;20703;-79
2021/08/12 10:52:00;;;;;;;8.80;6.83;;;;;;;;;;4977589;28;20199;-79
2021/08/12 10:54:26;;;;;;;7.50;6.80;;;27.30;99.90;;;;;;4975828;28;20173;-78
2021/08/12 10:57:14;;;;;;;8.13;7.53;;;27.50;99.90;;;;;;4988704;28;20176;-78
2021/08/12 10:59:41;;;;;;;9.50;7.23;;;27.60;99.90;;;;;;4976087;28;20164;-78
2021/08/12 11:02:28;;;;;;;9.00;7.50;;;28.40;99.90;;;;;;4975619;28;20190;-78
2021/08/12 11:04:58;;;;;;;8.37;7.63;;;27.80;99.90;;;;;;4973172;28;20182;-78
2021/08/12 11:07:36;;;;;;;11.73;8.00;;;27.80;99.90;;;;;;4975709;28;20239;-78
2021/08/12 11:10:04;;;;;;;8.23;7.43;;;27.60;99.90;;;;;;4973406;28;20218;-80
2021/08/12 11:12:48;;;;;;;7.33;6.63;;;;;;;;;;4973872;28;20181;-79
2021/08/12 11:15:16;;;;;;;7.43;6.77;;;;;;;;;;4975372;28;20191;-79
2021/08/12 11:17:54;;;;;;;7.80;7.13;;;28.10;99.90;;;;;;4980695;28;20258;-78
2021/08/12 11:20:40;;;;;;;8.00;7.17;;;28.30;99.90;;;;;;4981001;28;20208;-79
2021/08/12 11:23:38;;;;;;;8.47;7.67;;;28.30;99.90;;;;;;4982139;28;20235;-79
2021/08/12 11:26:10;;;;;;;8.67;7.87;;;28.30;99.90;;;;;;4974325;28;20180;-78
2021/08/12 11:28:38;;;;;;;8.60;7.07;;;28.20;99.90;;;;;;4979010;28;20204;-78
2021/08/12 11:31:19;;;;;;;7.53;6.93;;;28.30;99.90;;;;;;4979736;28;20208;-78
2021/08/12 11:33:47;;;;;;;8.87;6.80;;;28.30;99.90;;;;;;4977737;28;20536;-75
2021/08/12 11:36:18;;;;;;;8.63;7.60;;;28.30;99.90;;;;;;4975567;28;20672;-79
2021/08/12 11:38:53;;;;;;;7.43;6.80;;;28.40;99.90;;;;;;4978693;28;20181;-77
2021/08/12 11:41:20;;;;;;;8.07;7.23;;;;;;;;;;4981297;28;20254;-78
2021/08/12 11:43:48;;;;;;;7.77;6.90;;;28.80;99.90;;;;;;5001495;28;20560;-76
2021/08/12 11:46:15;;;;;;;8.40;7.03;;;28.90;99.90;;;;;;4987272;28;20635;-79
2021/08/12 11:48:41;;;;;;;8.80;6.97;;;28.90;99.90;;;;;;4980658;28;20187;-81
2021/08/12 11:51:07;;;;;;;7.77;7.00;;;29.00;99.90;;;;;;4977926;28;20204;-80
2021/08/12 11:53:47;;;;;;;7.80;7.00;;;29.20;99.90;;;;;;4977387;28;20185;-79
2021/08/12 11:56:26;;;;;;;7.80;7.10;;;29.30;99.90;;;;;;4981105;28;20190;-78
2021/08/12 11:58:56;;;;;;;10.30;7.60;;;29.20;99.90;;;;;;4978784;28;20172;-79
2021/08/12 12:01:25;;;;;;;7.43;6.83;;;29.10;99.90;;;;;;4980233;28;20295;-79
2021/08/12 12:04:02;;;;;;;8.13;7.33;;;29.40;99.90;;;;;;4987573;28;20596;-78
2021/08/12 12:06:42;;;;;;;9.70;7.90;;;29.60;99.90;;;;;;4988984;28;20179;-80
2021/08/12 12:09:32;;;;;;;10.17;7.23;;;29.60;99.90;;;;;;4979056;28;20194;-80
2021/08/12 12:12:03;;;;;;;7.90;7.20;;;29.40;99.90;;;;;;4983921;28;20204;-79
2021/08/12 12:14:35;;;;;;;7.87;7.07;;;29.60;99.90;;;;;;4987086;28;20195;-80
2021/08/12 12:17:12;;;;;;;7.00;6.37;;;29.60;99.90;;;;;;4980320;28;20187;-78
2021/08/12 12:19:58;;;;;;;7.40;6.70;;;29.50;99.90;;;;;;4976317;28;20207;-81
2021/08/12 12:22:24;;;;;;;7.37;6.53;;;29.50;99.90;;;;;;4979149;28;20683;-79
2021/08/12 12:24:49;;;;;;;7.33;6.50;;;29.70;99.90;;;;;;4989094;28;20635;-79
2021/08/12 12:27:20;;;;;;;8.50;7.57;;;29.90;99.90;;;;;;4984254;28;20234;-77
2021/08/12 12:29:48;;;;;;;7.47;6.77;;;29.90;99.90;;;;;;4984696;28;20204;-77
2021/08/12 12:32:14;;;;;;;7.63;6.93;;;30.10;99.90;;;;;;4978944;28;20184;-79
2021/08/12 12:34:57;;;;;;;6.97;6.27;;;30.30;99.90;;;;;;4979437;28;20188;-77
2021/08/12 12:37:24;;;;;;;8.07;6.50;;;30.40;99.90;;;;;;4972786;28;20188;-80
2021/08/12 12:39:50;;;;;;;7.87;7.17;;;30.20;99.90;;;;;;4983992;28;20214;-80
2021/08/12 12:42:17;;;;;;;7.63;6.87;;;30.00;99.90;;;;;;4987137;28;20185;-77
2021/08/12 12:45:15;;;;;;;7.27;6.57;;;29.90;99.90;;;;;;4981732;28;20173;-78
2021/08/12 12:47:41;;;;;;;8.83;6.47;;;30.10;99.90;;;;;;4946961;28;20260;-79
2021/08/12 12:50:16;;;;;;;6.63;5.97;;;30.20;99.90;;;;;;4982357;28;20205;-77
2021/08/12 12:52:55;;;;;;;7.00;6.30;;;30.40;99.90;;;;;;4985896;28;20187;-79
2021/08/12 12:55:22;;;;;;;6.47;5.97;;;30.60;99.90;;;;;;4987562;28;20202;-77
2021/08/12 12:57:49;;;;;;;6.57;6.03;;;30.60;99.90;;;;;;4976087;28;20189;-79